KFET/FET METAR and TAF weather

Enter ICAO airport designator
Station Type Date Time Source
KFET METAR 2022/12/02 23:15 UTC NOAA

KFET 022315Z AUTO 31026G36KT 10SM OVC025 M02/M08 A2991 RMK AO2 T10211077


Station Type Date Time Source
KFET Decoded METAR 2022/12/02 23:15 UTC NOAA

Fremont Municipal Airport, NE, United States (KFET) 41-27N 096-31W
Dec 02, 2022 - 06:15 PM EST / 2022.12.02 2315 UTC
Wind: from the NW (310 degrees) at 30 MPH (26 KT) gusting to 41 MPH (36 KT):0
Visibility: 10 mile(s):0
Sky conditions: overcast
Temperature: 28.2 F (-2.1 C)
Windchill: 12 F (-11 C):1
Dew Point: 18.1 F (-7.7 C)
Relative Humidity: 65%
Pressure (altimeter): 29.91 in. Hg (1012 hPa)
ob: KFET 022315Z AUTO 31026G36KT 10SM OVC025 M02/M08 A2991 RMK AO2 T10211077
cycle: 23

Station Type Date Time Source
KFET TAF UTC NOAA

Error!

Example: see airport list